Time;durP1;ratioP1;P1;durP2;ratioP2;P2;SDS_P1;SDS_P2;PMS_P1;PMS_P2;Temp;Humidity;BMP_temperature;BMP_pressure;BME280_temperature;BME280_humidity;BME280_pressure;Samples;Min_cycle;Max_cycle;Signal;HPM_P1;HPM_P2
2022/03/12 00:00:01;;;;;;;62.87;57.33;;;;;;;10.02;100.00;100448.75;2000520;71;32882;-75
2022/03/12 00:05:52;;;;;;;60.87;55.60;;;;;;;9.91;100.00;100446.64;2013102;71;33331;-74
2022/03/12 00:18:17;;;;;;;60.17;55.13;;;;;;;9.97;100.00;100449.63;1998829;71;32832;-74
2022/03/12 00:24:02;;;;;;;65.13;59.93;;;;;;;9.97;100.00;100450.17;2016402;71;32871;-75
2022/03/12 00:29:48;;;;;;;63.33;58.13;;;;;;;9.92;100.00;100448.30;2009251;71;32835;-68
2022/03/12 00:35:33;;;;;;;63.47;58.17;;;;;;;9.90;100.00;100459.41;2014776;71;32884;-75
2022/03/12 00:41:18;;;;;;;64.97;59.47;;;;;;;9.96;100.00;100461.86;2012999;71;32808;-74
2022/03/12 00:47:03;;;;;;;67.90;62.23;;;;;;;9.97;100.00;100455.72;1996765;71;32753;-74
2022/03/12 00:52:47;;;;;;;66.93;61.53;;;;;;;10.00;100.00;100458.77;2007898;71;32761;-74
2022/03/12 00:58:34;;;;;;;65.40;60.13;;;;;;;9.94;100.00;100462.70;2000438;71;32776;-74
2022/03/12 01:04:19;;;;;;;68.17;62.73;;;;;;;10.01;100.00;100463.77;2004145;71;32937;-75
2022/03/12 01:10:03;;;;;;;70.90;65.37;;;;;;;9.95;100.00;100470.46;2000526;71;32844;-75
2022/03/12 01:15:50;;;;;;;66.40;61.10;;;;;;;9.91;100.00;100471.61;2000018;70;32812;-68
2022/03/12 01:21:36;;;;;;;69.30;63.77;;;;;;;9.89;100.00;100474.39;2018354;70;33363;-67
2022/03/12 01:27:20;;;;;;;74.03;68.50;;;;;;;9.92;100.00;100478.82;2009901;71;33250;-73
2022/03/12 01:33:05;;;;;;;71.70;66.43;;;;;;;9.93;100.00;100481.84;2000564;71;32825;-75
2022/03/12 01:38:52;;;;;;;72.43;66.57;;;;;;;9.89;100.00;100475.77;2000541;71;32843;-67
2022/03/12 01:44:37;;;;;;;74.03;68.27;;;;;;;9.93;100.00;100479.06;1998776;71;32810;-74
2022/03/12 01:50:25;;;;;;;74.33;68.33;;;;;;;9.90;100.00;100487.98;1991462;70;33326;-68
2022/03/12 01:56:15;;;;;;;72.27;66.47;;;;;;;9.91;100.00;100484.09;2011376;71;32833;-67
2022/03/12 02:02:04;;;;;;;75.73;69.87;;;;;;;9.94;100.00;100490.44;2012938;71;32838;-74
2022/03/12 02:07:50;;;;;;;76.53;70.80;;;;;;;9.89;100.00;100497.41;1996978;71;32908;-74
2022/03/12 02:13:38;;;;;;;79.27;73.60;;;;;;;9.89;100.00;100504.90;1995228;71;33265;-68
2022/03/12 02:19:26;;;;;;;77.93;72.23;;;;;;;9.97;100.00;100500.12;2009114;71;32955;-68
2022/03/12 02:25:12;;;;;;;81.90;76.30;;;;;;;9.89;100.00;100500.73;2016493;71;32851;-75
2022/03/12 02:30:59;;;;;;;77.33;71.93;;;;;;;9.83;100.00;100506.91;1995052;71;32836;-75
2022/03/12 02:36:45;;;;;;;83.20;77.17;;;;;;;9.77;100.00;100509.44;2006194;71;32822;-75
2022/03/12 02:42:35;;;;;;;83.47;77.80;;;;;;;9.69;100.00;100503.67;2003819;71;32824;-75
2022/03/12 02:48:18;;;;;;;83.33;77.60;;;;;;;9.70;100.00;100504.78;2008192;71;33218;-67
2022/03/12 02:54:02;;;;;;;82.37;76.40;;;;;;;9.68;100.00;100504.22;2011166;71;33392;-66
2022/03/12 02:59:50;;;;;;;82.27;76.63;;;;;;;9.76;100.00;100503.61;2000679;71;32864;-67
2022/03/12 03:08:50;;;;;;;87.03;80.67;;;;;;;9.74;100.00;100510.02;2051572;69;32706;-67
2022/03/12 03:11:20;;;;;;;85.27;79.70;;;;;;;9.67;100.00;100517.81;2012576;70;26211;-75
2022/03/12 03:13:54;;;;;;;84.70;78.57;;;;;;;9.69;100.00;100526.69;2009368;70;26211;-67
2022/03/12 03:16:24;;;;;;;80.57;74.77;;;;;;;9.70;100.00;100522.81;2019476;70;26202;-67
2022/03/12 03:18:56;;;;;;;80.43;74.73;;;;;;;9.65;100.00;100526.16;1937593;73;26704;-74
2022/03/12 03:21:27;;;;;;;82.70;77.07;;;;;;;9.63;100.00;100525.64;1934214;73;26255;-67
2022/03/12 03:24:00;;;;;;;81.73;75.97;;;;;;;9.62;100.00;100524.80;1934886;73;26286;-67
2022/03/12 03:26:53;;;;;;;80.50;74.70;;;;;;;9.63;100.00;100520.09;1939734;73;26248;-75
2022/03/12 03:29:24;;;;;;;81.03;75.10;;;;;;;9.58;100.00;100520.95;1966006;73;26283;-75
2022/03/12 03:31:55;;;;;;;84.20;78.30;;;;;;;9.62;100.00;100527.58;1945158;73;26321;-75
2022/03/12 03:34:26;;;;;;;82.07;76.57;;;;;;;9.58;100.00;100533.42;1946228;73;26351;-67
2022/03/12 03:36:56;;;;;;;82.30;76.63;;;;;;;9.62;100.00;100530.35;1939358;73;26228;-67
2022/03/12 03:39:26;;;;;;;82.50;76.93;;;;;;;9.63;100.00;100537.53;1965930;73;26234;-74
2022/03/12 03:41:57;;;;;;;82.57;76.73;;;;;;;9.56;100.00;100530.09;1936145;73;26217;-67
2022/03/12 03:44:31;;;;;;;83.87;78.13;;;;;;;9.63;100.00;100530.59;2010344;70;26778;-67
2022/03/12 03:47:02;;;;;;;82.93;77.17;;;;;;;9.52;100.00;100531.78;2018034;70;26861;-74
2022/03/12 03:49:32;;;;;;;81.50;75.57;;;;;;;9.51;100.00;100530.95;2007971;70;26289;-67
2022/03/12 03:52:03;;;;;;;83.17;77.27;;;;;;;9.48;100.00;100533.47;1937527;74;26282;-74
2022/03/12 03:54:34;;;;;;;80.43;74.77;;;;;;;9.49;100.00;100541.52;1930794;73;26674;-74
2022/03/12 03:57:05;;;;;;;77.33;71.83;;;;;;;9.43;100.00;100548.74;1965890;73;26707;-74
2022/03/12 03:59:35;;;;;;;77.80;71.80;;;;;;;9.45;100.00;100549.30;1936989;73;26631;-74
2022/03/12 04:02:06;;;;;;;76.77;71.37;;;;;;;9.47;100.00;100539.57;2008586;70;26291;-74
2022/03/12 04:04:36;;;;;;;76.50;70.90;;;;;;;9.48;100.00;100549.55;1941465;73;26310;-75
2022/03/12 04:07:10;;;;;;;77.93;72.17;;;;;;;9.51;100.00;100555.07;1902105;73;26243;-74
2022/03/12 04:09:39;;;;;;;78.57;72.83;;;;;;;9.51;100.00;100548.14;1937371;74;26187;-67
2022/03/12 04:12:11;;;;;;;76.53;70.90;;;;;;;9.48;100.00;100555.09;1931579;74;26246;-74
2022/03/12 04:14:41;;;;;;;81.57;75.60;;;;;;;9.42;100.00;100553.45;1931654;74;26631;-68
2022/03/12 04:17:15;;;;;;;76.97;71.20;;;;;;;9.38;100.00;100566.78;1931591;74;26246;-68
2022/03/12 04:19:44;;;;;;;77.20;71.40;;;;;;;9.35;100.00;100572.90;1930521;74;26313;-75
2022/03/12 04:22:16;;;;;;;76.60;70.80;;;;;;;9.36;100.00;100580.11;1930889;74;26233;-68
2022/03/12 04:24:49;;;;;;;76.93;71.53;;;;;;;9.36;100.00;100582.33;1930844;74;26265;-67
2022/03/12 04:27:22;;;;;;;74.57;68.97;;;;;;;9.39;100.00;100594.78;1930832;74;26236;-74
2022/03/12 04:29:51;;;;;;;73.07;67.47;;;;;;;9.38;100.00;100591.72;1930971;74;26212;-74
2022/03/12 04:32:21;;;;;;;73.87;68.47;;;;;;;9.33;100.00;100594.52;1930917;74;26291;-67
2022/03/12 04:34:52;;;;;;;72.60;67.00;;;;;;;9.32;100.00;100597.03;1930944;74;26336;-74
2022/03/12 04:37:22;;;;;;;74.90;69.20;;;;;;;9.25;100.00;100599.25;1931015;74;26402;-67
2022/03/12 04:39:53;;;;;;;74.00;68.30;;;;;;;9.18;100.00;100602.34;1930897;74;26221;-74
2022/03/12 04:42:24;;;;;;;74.97;69.23;;;;;;;9.13;100.00;100602.35;1930909;74;26205;-74
2022/03/12 04:44:54;;;;;;;73.93;68.53;;;;;;;9.05;100.00;100615.41;1930857;74;26217;-74
2022/03/12 04:47:25;;;;;;;75.97;70.37;;;;;;;9.05;100.00;100632.86;1931064;74;26466;-67
2022/03/12 04:49:56;;;;;;;73.17;67.77;;;;;;;9.06;100.00;100637.30;1930922;74;26302;-68
2022/03/12 04:52:26;;;;;;;77.83;72.10;;;;;;;9.04;100.00;100640.05;1930896;74;26656;-67
2022/03/12 04:54:58;;;;;;;75.00;69.40;;;;;;;8.96;100.00;100646.16;1930838;74;26346;-74
2022/03/12 04:57:28;;;;;;;74.37;68.90;;;;;;;9.02;100.00;100644.51;1930910;74;26193;-67
2022/03/12 05:00:00;;;;;;;72.30;67.00;;;;;;;8.96;100.00;100651.70;1931093;74;26323;-74
2022/03/12 05:05:46;;;;;;;78.97;73.27;;;;;;;8.89;100.00;100674.72;1991537;71;33256;-67
2022/03/12 05:11:34;;;;;;;72.60;67.07;;;;;;;8.99;100.00;100695.46;2012817;71;32916;-75
2022/03/12 05:17:18;;;;;;;71.20;66.07;;;;;;;9.12;100.00;100697.66;2000050;71;32834;-67
2022/03/12 05:23:07;;;;;;;74.07;68.77;;;;;;;8.99;100.00;100689.92;2007764;71;32895;-67
2022/03/12 05:28:53;;;;;;;78.47;72.97;;;;;;;8.87;100.00;100708.77;1991306;71;32824;-74
2022/03/12 05:34:37;;;;;;;78.20;72.70;;;;;;;8.89;100.00;100716.27;1991442;71;33347;-68
2022/03/12 05:40:26;;;;;;;77.77;72.03;;;;;;;8.83;100.00;100709.89;2016491;71;32837;-67
2022/03/12 05:46:11;;;;;;;73.90;68.33;;;;;;;8.84;100.00;100725.95;2005541;71;32830;-73
2022/03/12 05:51:58;;;;;;;75.60;70.00;;;;;;;8.63;100.00;100727.88;2007678;71;33472;-74
2022/03/12 05:57:42;;;;;;;73.80;68.40;;;;;;;8.61;100.00;100735.62;2018414;71;32870;-75
2022/03/12 06:03:29;;;;;;;73.40;67.87;;;;;;;8.45;100.00;100748.61;1992859;71;32936;-66
2022/03/12 06:09:18;;;;;;;75.90;70.40;;;;;;;8.48;100.00;100766.59;2015272;71;33325;-67
2022/03/12 06:15:09;;;;;;;77.73;71.93;;;;;;;8.47;100.00;100771.88;2005545;71;33318;-66
2022/03/12 06:20:54;;;;;;;75.10;69.27;;;;;;;8.55;100.00;100769.95;2005331;71;32813;-67
2022/03/12 06:26:39;;;;;;;77.53;71.63;;;;;;;8.57;100.00;100778.80;2018353;71;33324;-74
2022/03/12 06:32:23;;;;;;;74.07;68.57;;;;;;;8.64;100.00;100789.08;2002283;71;32884;-67
2022/03/12 06:38:11;;;;;;;77.67;72.40;;;;;;;8.67;100.00;100803.20;1995266;71;33337;-75
2022/03/12 06:43:57;;;;;;;82.10;76.20;;;;;;;8.70;100.00;100800.42;2012755;71;32982;-67
2022/03/12 06:49:44;;;;;;;82.23;76.43;;;;;;;8.56;100.00;100801.50;2000620;71;32765;-67
2022/03/12 06:55:29;;;;;;;82.93;77.23;;;;;;;8.49;100.00;100809.23;2013053;71;32991;-66
2022/03/12 06:58:03;;;;;;;86.63;80.10;;;;;;;8.37;100.00;100818.89;1971878;72;26204;-74
2022/03/12 07:03:48;;;;;;;86.67;80.80;;;;;;;8.42;100.00;100822.52;2011315;71;33295;-67
2022/03/12 07:09:36;;;;;;;84.10;78.10;;;;;;;8.39;100.00;100836.04;2000184;70;32945;-73
2022/03/12 07:15:22;;;;;;;81.57;75.20;;;;;;;8.43;100.00;100853.80;2007735;70;32883;-75
2022/03/12 07:21:06;;;;;;;77.13;70.80;;;;;;;8.37;100.00;100865.39;1995103;71;33302;-66
2022/03/12 07:26:50;;;;;;;83.37;77.23;;;;;;;8.58;100.00;100863.53;2016474;71;32825;-66
2022/03/12 07:32:36;;;;;;;83.23;77.43;;;;;;;8.80;100.00;100865.54;2012923;71;32831;-74
2022/03/12 07:38:22;;;;;;;79.07;73.50;;;;;;;8.74;100.00;100870.77;2003599;71;32834;-71
2022/03/12 07:44:08;;;;;;;83.13;77.27;;;;;;;8.62;100.00;100872.95;1991312;71;32836;-73
2022/03/12 07:49:53;;;;;;;80.83;75.07;;;;;;;8.83;100.00;100875.23;1997222;71;32753;-67
2022/03/12 07:55:40;;;;;;;79.13;73.30;;;;;;;8.88;100.00;100894.63;2014915;71;32935;-73
2022/03/12 08:01:24;;;;;;;76.43;70.77;;;;;;;9.04;100.00;100909.63;2002283;71;32775;-70
2022/03/12 08:07:10;;;;;;;80.17;74.10;;;;;;;9.18;100.00;100920.19;2016376;71;32892;-67
2022/03/12 08:12:54;;;;;;;71.77;66.53;;;;;;;9.24;100.00;100932.38;2005521;70;32808;-71
2022/03/12 08:18:38;;;;;;;76.97;71.60;;;;;;;9.35;100.00;100934.63;2013179;71;32880;-66
2022/03/12 08:24:24;;;;;;;77.53;71.93;;;;;;;9.66;100.00;100937.72;1994945;71;33258;-70
2022/03/12 08:30:12;;;;;;;77.20;71.70;;;;;;;9.62;100.00;100939.39;2007494;71;32902;-71
2022/03/12 08:35:57;;;;;;;77.77;71.57;;;;;;;9.50;100.00;100950.72;2009222;71;32916;-73
2022/03/12 08:41:42;;;;;;;80.83;74.93;;;;;;;9.54;100.00;100974.60;2009303;71;32989;-74
2022/03/12 08:47:27;;;;;;;80.10;73.90;;;;;;;9.37;100.00;100981.75;2014784;71;33056;-72
2022/03/12 08:53:16;;;;;;;80.03;73.80;;;;;;;9.47;100.00;100969.86;2015044;71;33386;-72
2022/03/12 08:59:30;;;;;;;78.70;72.90;;;;;;;9.73;100.00;100983.20;1871512;77;33227;-74
2022/03/12 09:05:15;;;;;;;75.47;69.87;;;;;;;9.91;100.00;100987.66;1964921;72;33396;-78
2022/03/12 09:11:00;;;;;;;75.63;69.93;;;;;;;10.24;100.00;100984.05;2006029;71;32767;-70
2022/03/12 09:16:44;;;;;;;72.13;66.63;;;;;;;10.43;100.00;100985.13;2014804;71;32904;-79
2022/03/12 09:22:28;;;;;;;75.27;69.63;;;;;;;10.49;100.00;100990.38;2006178;71;33289;-80
2022/03/12 09:28:14;;;;;;;86.47;80.70;;;;;;;10.69;100.00;100982.56;1998686;71;32771;-78
2022/03/12 09:34:00;;;;;;;74.80;69.50;;;;;;;10.98;100.00;100972.16;2016450;71;32814;-71
2022/03/12 09:39:45;;;;;;;76.50;70.63;;;;;;;10.90;100.00;100984.70;2009679;71;33536;-77
2022/03/12 09:45:29;;;;;;;72.83;66.83;;;;;;;11.33;100.00;100983.94;2013077;71;32891;-79
2022/03/12 09:51:14;;;;;;;73.67;67.80;;;;;;;11.22;100.00;100985.09;2014547;71;32977;-78
2022/03/12 09:57:01;;;;;;;74.70;69.47;;;;;;;11.24;100.00;100987.05;2002227;71;32923;-70
2022/03/12 10:02:46;;;;;;;76.03;70.43;;;;;;;10.72;100.00;101001.99;2011635;71;32840;-76
2022/03/12 10:08:31;;;;;;;75.93;70.63;;;;;;;10.66;100.00;100998.94;2009173;71;32944;-78
2022/03/12 10:14:15;;;;;;;74.53;69.43;;;;;;;10.56;100.00;100992.87;2016583;71;33386;-68
2022/03/12 10:20:00;;;;;;;75.40;69.93;;;;;;;10.61;100.00;100995.62;2003517;71;32941;-70
2022/03/12 10:25:45;;;;;;;69.03;64.33;;;;;;;11.15;100.00;101005.99;2015481;70;32885;-83
2022/03/12 10:31:30;;;;;;;74.00;68.70;;;;;;;11.49;100.00;100998.58;2001230;71;32751;-85
2022/03/12 10:37:33;;;;;;;81.40;76.07;;;;;;;11.82;100.00;100995.59;2003579;71;32929;-74
2022/03/12 10:43:20;;;;;;;85.13;79.43;;;;;;;12.15;100.00;100989.17;2005773;71;32923;-75
2022/03/12 10:45:55;;;;;;;82.07;76.80;;;;;;;12.13;100.00;100989.21;1972170;72;26341;-70
2022/03/12 10:51:42;;;;;;;67.03;62.37;;;;;;;11.97;100.00;100984.91;2000629;71;32769;-69
2022/03/12 10:57:27;;;;;;;81.00;76.10;;;;;;;12.00;100.00;100981.53;2003936;71;32883;-78
2022/03/12 11:03:15;;;;;;;67.80;63.40;;;;;;;12.25;100.00;100972.37;2014668;71;32841;-77
2022/03/12 11:09:00;;;;;;;68.17;63.87;;;;;;;12.16;100.00;100983.05;2014722;70;33387;-81
2022/03/12 11:14:48;;;;;;;68.30;63.67;;;;;;;12.40;100.00;100990.08;2010173;70;32826;-75
2022/03/12 11:20:36;;;;;;;65.40;61.57;;;;;;;12.38;100.00;100989.52;2005922;71;32829;-75
2022/03/12 11:26:25;;;;;;;65.87;62.27;;;;;;;12.31;100.00;100995.45;2002353;71;32788;-73
2022/03/12 11:32:17;;;;;;;60.20;56.60;;;;;;;12.12;100.00;100995.89;2018076;71;32897;-75
2022/03/12 11:38:13;;;;;;;63.33;59.60;;;;;;;12.06;100.00;101002.09;2004711;71;32760;-75
2022/03/12 11:43:58;;;;;;;65.03;61.23;;;;;;;11.73;100.00;101002.89;2000705;71;32820;-75
2022/03/12 11:49:46;;;;;;;61.97;58.37;;;;;;;12.37;100.00;101003.17;2014509;71;32793;-76
2022/03/12 11:55:32;;;;;;;56.13;53.07;;;;;;;12.38;100.00;100998.72;2010795;71;32816;-79
2022/03/12 12:01:20;;;;;;;64.37;60.57;;;;;;;12.33;100.00;100996.81;2016685;71;33324;-75
2022/03/12 12:07:04;;;;;;;57.33;53.83;;;;;;;12.63;100.00;100999.84;2009796;71;32770;-78
2022/03/12 12:12:52;;;;;;;60.80;57.47;;;;;;;12.70;100.00;100989.20;1999040;71;32940;-80
2022/03/12 12:18:38;;;;;;;55.87;52.87;;;;;;;12.55;100.00;100991.30;2006581;71;32953;-78
2022/03/12 12:24:31;;;;;;;55.67;52.53;;;;;;;12.61;100.00;100987.34;2016901;71;33430;-75
2022/03/12 12:30:20;;;;;;;57.80;54.67;;;;;;;12.81;100.00;100989.06;2007980;71;33302;-74
2022/03/12 12:36:16;;;;;;;58.63;54.77;;;;;;;12.47;100.00;100987.77;1998295;71;32931;-75
2022/03/12 12:42:24;;;;;;;57.00;53.77;;;;;;;12.61;100.00;100987.34;2004304;71;32874;-79
2022/03/12 12:48:14;;;;;;;60.20;56.43;;;;;;;12.07;100.00;100993.15;2011016;70;32807;-75
2022/03/12 12:54:49;;;;;;;57.80;54.67;;;;;;;12.48;100.00;100989.44;2006091;71;32838;-81
2022/03/12 13:00:46;;;;;;;53.20;50.30;;;;;;;12.37;100.00;100982.28;2001081;71;32929;-76
2022/03/12 13:06:48;;;;;;;53.87;50.70;;;;;;;12.57;100.00;100973.73;2001999;71;32901;-73
2022/03/12 13:12:42;;;;;;;49.03;46.33;;;;;;;12.46;100.00;100964.64;2018490;71;32819;-82
2022/03/12 13:18:43;;;;;;;47.03;44.40;;;;;;;12.26;100.00;100964.30;2015278;71;32899;-74
2022/03/12 13:24:53;;;;;;;45.93;43.13;;;;;;;12.68;100.00;100958.55;2003140;70;33347;-80
2022/03/12 13:30:39;;;;;;;42.47;39.97;;;;;;;12.50;100.00;100950.95;2015665;70;32947;-78
2022/03/12 13:36:26;;;;;;;38.77;36.50;;;;;;;12.37;100.00;100941.33;2013010;71;32807;-78
2022/03/12 13:42:12;;;;;;;48.93;46.07;;;;;;;12.64;100.00;100936.02;2013319;71;32969;-74
2022/03/12 13:48:10;;;;;;;34.00;32.07;;;;;;;12.71;100.00;100916.97;2014813;71;33425;-79
2022/03/12 13:53:57;;;;;;;31.30;29.57;;;;;;;12.92;100.00;100914.75;2009919;71;33323;-75
2022/03/12 13:59:42;;;;;;;25.80;24.40;;;;;;;12.79;100.00;100906.55;2000575;71;32833;-78
2022/03/12 14:05:29;;;;;;;26.70;25.00;;;;;;;12.62;100.00;100898.44;1977471;72;32859;-74
2022/03/12 14:11:14;;;;;;;24.20;22.80;;;;;;;12.86;100.00;100899.80;2003890;71;32889;-81
2022/03/12 14:17:01;;;;;;;28.50;26.67;;;;;;;12.86;100.00;100877.49;2000645;70;33407;-76
2022/03/12 14:22:46;;;;;;;28.43;26.43;;;;;;;12.75;100.00;100892.95;2000054;71;32923;-78
2022/03/12 14:28:30;;;;;;;27.90;26.57;;;;;;;12.84;100.00;100882.52;1991959;71;32993;-75
2022/03/12 14:34:14;;;;;;;25.20;23.60;;;;;;;13.19;100.00;100869.50;2011050;71;32976;-78
2022/03/12 14:40:00;;;;;;;27.60;25.40;;;;;;;12.62;100.00;100890.09;2013333;71;32801;-82
2022/03/12 14:45:44;;;;;;;29.13;27.43;;;;;;;12.78;100.00;100879.83;2011607;71;32868;-80
2022/03/12 14:51:29;;;;;;;37.43;35.53;;;;;;;12.88;100.00;100868.28;1995156;71;32904;-74
2022/03/12 14:57:15;;;;;;;27.13;25.43;;;;;;;12.98;100.00;100880.66;1997024;71;32916;-83
2022/03/12 15:03:10;;;;;;;25.00;23.17;;;;;;;12.70;100.00;100880.50;2004027;71;32848;-75
2022/03/12 15:09:05;;;;;;;24.90;23.40;;;;;;;12.90;100.00;100874.37;2003703;71;32944;-78
2022/03/12 15:15:00;;;;;;;24.20;22.60;;;;;;;12.96;100.00;100856.45;2015188;71;32842;-75
2022/03/12 15:20:47;;;;;;;29.20;27.50;;;;;;;13.01;100.00;100860.53;2007896;71;32992;-78
2022/03/12 15:26:32;;;;;;;24.37;22.80;;;;;;;12.83;100.00;100850.22;2002483;71;33324;-76
2022/03/12 15:32:19;;;;;;;22.53;21.00;;;;;;;12.47;100.00;100861.83;2013526;71;33017;-76
2022/03/12 15:38:05;;;;;;;21.60;20.13;;;;;;;12.52;100.00;100865.95;2016663;71;32931;-84
2022/03/12 15:43:51;;;;;;;22.77;21.33;;;;;;;12.32;100.00;100855.07;2010141;71;32779;-74
2022/03/12 15:49:35;;;;;;;23.30;22.00;;;;;;;12.08;100.00;100849.48;2011030;70;32892;-76
2022/03/12 15:55:22;;;;;;;21.80;20.50;;;;;;;12.02;100.00;100870.17;1991445;71;32814;-74
2022/03/12 16:01:07;;;;;;;22.70;21.40;;;;;;;12.08;100.00;100863.95;1994966;71;32902;-75
2022/03/12 16:06:51;;;;;;;21.80;20.47;;;;;;;12.00;100.00;100874.34;2009693;71;32900;-77
2022/03/12 16:12:35;;;;;;;22.77;21.37;;;;;;;11.90;100.00;100857.73;2013763;71;33281;-75
2022/03/12 16:18:21;;;;;;;23.47;22.00;;;;;;;12.03;100.00;100855.09;2005551;71;33414;-82
2022/03/12 16:24:08;;;;;;;23.50;21.87;;;;;;;11.98;100.00;100855.73;2011419;71;32957;-75
2022/03/12 16:29:53;;;;;;;25.50;23.57;;;;;;;11.86;100.00;100854.16;2018784;71;32900;-83
2022/03/12 16:35:37;;;;;;;26.03;24.23;;;;;;;11.79;100.00;100855.08;1991396;70;32877;-76
2022/03/12 16:41:21;;;;;;;28.17;26.30;;;;;;;11.76;100.00;100841.76;2014746;71;32836;-75
2022/03/12 16:47:06;;;;;;;28.40;26.70;;;;;;;11.73;100.00;100838.15;2013499;71;32834;-79
2022/03/12 16:52:50;;;;;;;30.73;28.63;;;;;;;11.73;100.00;100833.97;1995734;71;32753;-87
2022/03/12 16:58:35;;;;;;;30.23;28.30;;;;;;;11.73;100.00;100828.97;2003955;71;32801;-81
2022/03/12 17:04:22;;;;;;;28.77;26.83;;;;;;;11.70;100.00;100824.80;1982089;71;30805;-82
2022/03/12 17:10:08;;;;;;;27.63;25.93;;;;;;;11.75;100.00;100823.39;2015359;71;33350;-77
2022/03/12 17:15:53;;;;;;;28.90;27.10;;;;;;;11.75;100.00;100822.56;2004169;71;32807;-81
2022/03/12 17:21:40;;;;;;;30.50;28.50;;;;;;;11.73;100.00;100816.45;2001028;71;32855;-80
2022/03/12 17:27:26;;;;;;;31.90;29.80;;;;;;;11.68;100.00;100801.98;2013195;71;32870;-78
2022/03/12 17:33:10;;;;;;;33.73;31.47;;;;;;;11.64;100.00;100805.09;2016501;71;32815;-75
2022/03/12 17:38:56;;;;;;;37.53;35.23;;;;;;;11.55;100.00;100814.39;1995171;71;33265;-76
2022/03/12 17:44:42;;;;;;;40.30;38.00;;;;;;;11.48;100.00;100799.41;2014772;71;32913;-76
2022/03/12 17:50:28;;;;;;;42.97;40.37;;;;;;;11.43;100.00;100803.07;2016986;71;32842;-79
2022/03/12 17:56:12;;;;;;;45.40;42.50;;;;;;;11.34;100.00;100808.16;2018336;71;33415;-78
2022/03/12 18:01:56;;;;;;;47.43;44.60;;;;;;;11.22;100.00;100806.31;2000994;71;32940;-73
2022/03/12 18:07:45;;;;;;;52.50;49.27;;;;;;;11.21;100.00;100813.02;2006153;71;32885;-78
2022/03/12 18:13:31;;;;;;;53.07;49.73;;;;;;;11.18;100.00;100811.63;2009433;71;30890;-77
2022/03/12 18:19:15;;;;;;;56.03;52.40;;;;;;;11.07;100.00;100806.45;1994857;71;32866;-76
2022/03/12 18:25:01;;;;;;;58.37;54.80;;;;;;;11.03;100.00;100810.37;2005843;71;32956;-79
2022/03/12 18:30:45;;;;;;;58.23;54.67;;;;;;;11.02;100.00;100803.15;2017121;71;32800;-84
2022/03/12 18:36:29;;;;;;;64.97;61.10;;;;;;;11.01;100.00;100797.31;2015012;70;33488;-80
2022/03/12 18:42:16;;;;;;;67.23;63.13;;;;;;;10.91;100.00;100796.02;2015123;71;32908;-77
2022/03/12 18:48:01;;;;;;;72.97;68.57;;;;;;;10.91;100.00;100802.97;2003820;71;32954;-80
2022/03/12 18:53:46;;;;;;;73.30;68.80;;;;;;;10.95;100.00;100795.12;1982099;71;32921;-77
2022/03/12 18:59:32;;;;;;;76.73;71.57;;;;;;;10.81;100.00;100784.96;2011483;71;32910;-77
2022/03/12 19:05:18;;;;;;;77.77;72.70;;;;;;;10.80;100.00;100774.41;1971975;72;32987;-78
2022/03/12 19:11:05;;;;;;;79.27;74.37;;;;;;;10.76;100.00;100764.98;2018604;71;32879;-79
2022/03/12 19:16:52;;;;;;;81.70;76.80;;;;;;;10.74;100.00;100759.46;2006373;71;32900;-78
2022/03/12 19:22:37;;;;;;;79.10;74.00;;;;;;;10.61;100.00;100759.52;2013588;71;32846;-78
2022/03/12 19:28:23;;;;;;;83.23;77.93;;;;;;;10.53;100.00;100762.07;1995391;71;34039;-75
2022/03/12 19:34:12;;;;;;;79.17;74.17;;;;;;;10.59;100.00;100768.71;2017081;71;33268;-77
2022/03/12 19:39:54;;;;;;;78.53;73.50;;;;;;;10.61;100.00;100778.16;2006508;71;32837;-82
2022/03/12 19:45:41;;;;;;;80.37;75.37;;;;;;;10.56;100.00;100779.58;2002901;71;33344;-88
2022/03/12 19:51:26;;;;;;;80.17;75.27;;;;;;;10.52;100.00;100773.77;2008364;71;32981;-76
2022/03/12 19:57:10;;;;;;;82.40;77.33;;;;;;;10.46;100.00;100776.28;1995347;71;32844;-76
2022/03/12 20:02:56;;;;;;;79.30;74.60;;;;;;;10.45;100.00;100775.45;1989983;71;32774;-73
2022/03/12 20:08:40;;;;;;;78.60;73.97;;;;;;;10.40;100.00;100765.76;2000182;71;32825;-75
2022/03/12 20:14:25;;;;;;;82.03;77.20;;;;;;;10.38;100.00;100764.39;2014933;71;32928;-74
2022/03/12 20:20:12;;;;;;;80.63;75.83;;;;;;;10.38;100.00;100763.01;2013276;71;33365;-77
2022/03/12 20:25:57;;;;;;;80.00;75.20;;;;;;;10.37;100.00;100760.78;2004593;71;33381;-80
2022/03/12 20:31:42;;;;;;;80.80;75.73;;;;;;;10.32;100.00;100756.64;2000892;71;32763;-78
2022/03/12 20:37:26;;;;;;;78.80;74.00;;;;;;;10.28;100.00;100752.78;2013908;71;33374;-74
2022/03/12 20:43:10;;;;;;;82.47;77.10;;;;;;;10.22;100.00;100743.39;1997493;71;32812;-76
2022/03/12 20:48:55;;;;;;;80.53;75.63;;;;;;;10.18;100.00;100745.91;2016994;71;32834;-74
2022/03/12 20:54:39;;;;;;;79.77;74.97;;;;;;;10.18;100.00;100736.75;1997137;71;33304;-75
2022/03/12 21:00:24;;;;;;;77.93;73.23;;;;;;;10.18;100.00;100733.42;1991717;71;32764;-74
2022/03/12 21:06:08;;;;;;;75.77;71.00;;;;;;;10.24;100.00;100736.42;2002383;71;33270;-74
2022/03/12 21:12:00;;;;;;;75.17;70.67;;;;;;;10.32;100.00;100733.59;2004082;71;32902;-74
2022/03/12 21:17:44;;;;;;;78.80;74.20;;;;;;;10.42;100.00;100721.89;2018559;71;32845;-74
2022/03/12 21:23:35;;;;;;;78.83;74.17;;;;;;;10.36;100.00;100723.58;2018740;71;33326;-74
2022/03/12 21:29:20;;;;;;;75.27;70.87;;;;;;;10.24;100.00;100711.44;2018563;71;32836;-75
2022/03/12 21:35:05;;;;;;;77.47;72.87;;;;;;;10.29;100.00;100718.36;2018380;71;32890;-74
2022/03/12 21:40:49;;;;;;;80.23;75.33;;;;;;;10.26;100.00;100712.00;1995395;71;32832;-72
2022/03/12 21:46:34;;;;;;;78.73;73.93;;;;;;;10.21;100.00;100713.97;2015079;71;33314;-75
2022/03/12 21:52:19;;;;;;;80.53;75.43;;;;;;;10.23;100.00;100707.00;1996077;71;30802;-74
2022/03/12 21:58:04;;;;;;;80.77;75.87;;;;;;;10.19;100.00;100703.69;2005649;71;32931;-75
2022/03/12 22:03:49;;;;;;;81.40;76.33;;;;;;;10.16;100.00;100703.72;2013617;71;33309;-77
2022/03/12 22:09:34;;;;;;;83.00;77.90;;;;;;;10.11;100.00;100692.61;1991716;71;33229;-75
2022/03/12 22:15:20;;;;;;;80.57;75.40;;;;;;;10.16;100.00;100691.23;2010055;71;32770;-74
2022/03/12 22:21:05;;;;;;;81.90;76.83;;;;;;;10.21;100.00;100684.27;1998940;71;32826;-76
2022/03/12 22:26:49;;;;;;;82.73;77.57;;;;;;;10.17;100.00;100687.90;1991626;71;32767;-76
2022/03/12 22:32:34;;;;;;;86.40;81.13;;;;;;;10.19;100.00;100684.27;2011367;71;33317;-75
2022/03/12 22:38:18;;;;;;;84.63;79.50;;;;;;;10.10;100.00;100673.48;2003958;71;32826;-75
2022/03/12 22:44:03;;;;;;;84.43;79.23;;;;;;;10.14;100.00;100675.96;2011670;71;33384;-85
2022/03/12 22:49:49;;;;;;;83.33;78.03;;;;;;;10.00;100.00;100668.27;1998700;71;32931;-76
2022/03/12 22:55:35;;;;;;;83.97;78.77;;;;;;;10.03;100.00;100661.30;1997017;71;32749;-76
2022/03/12 23:01:51;;;;;;;85.80;80.47;;;;;;;9.98;100.00;100663.54;1998533;70;32817;-76
2022/03/12 23:19:59;;;;;;;83.73;78.53;;;;;;;9.82;100.00;100649.48;2000625;71;32866;-75
2022/03/12 23:25:45;;;;;;;84.03;78.73;;;;;;;9.79;100.00;100645.07;2010104;71;32809;-76
2022/03/12 23:31:31;;;;;;;86.00;80.60;;;;;;;9.68;100.00;100637.89;2013169;71;32812;-75
2022/03/12 23:37:16;;;;;;;84.80;79.60;;;;;;;9.74;100.00;100629.83;2005903;71;32810;-75
2022/03/12 23:43:00;;;;;;;87.47;81.90;;;;;;;9.73;100.00;100624.01;2000598;71;33296;-75
2022/03/12 23:48:46;;;;;;;89.83;84.20;;;;;;;9.69;100.00;100614.05;2013328;71;32879;-77
2022/03/12 23:54:39;;;;;;;83.53;78.33;;;;;;;9.74;100.00;100608.48;1959999;72;33388;-75